Time;durP1;ratioP1;P1;durP2;ratioP2;P2;SDS_P1;SDS_P2;PMS_P1;PMS_P2;Temp;Humidity;BMP_temperature;BMP_pressure;BME280_temperature;BME280_humidity;BME280_pressure;Samples;Min_cycle;Max_cycle;Signal;HPM_P1;HPM_P2
2022/11/11 00:02:00;;;;;;;39.05;5.57;;;;;;;;;;6299976;22;20046;-66
2022/11/11 00:04:34;;;;;;;45.72;5.90;;;;;;;;;;6300030;22;20023;-66
2022/11/11 00:07:01;;;;;;;39.83;6.65;;;;;;;;;;6298957;22;20526;-66
2022/11/11 00:09:35;;;;;;;47.88;6.45;;;;;;;;;;6301767;22;20016;-65
2022/11/11 00:12:02;;;;;;;43.38;6.43;;;;;;;;;;6299816;22;20026;-61
2022/11/11 00:14:30;;;;;;;42.58;6.72;;;;;;;;;;6300819;22;20019;-57
2022/11/11 00:25:30;;;;;;;50.53;7.60;;;;;;;;;;6298676;22;20019;-66
2022/11/11 00:28:07;;;;;;;40.83;6.85;;;;;;;;;;6300539;22;20062;-65
2022/11/11 00:30:34;;;;;;;41.28;6.68;;;;;;;;;;6301040;22;20102;-58
2022/11/11 00:33:10;;;;;;;47.72;7.65;;;;;;;;;;6300166;22;20536;-52
2022/11/11 00:35:54;;;;;;;37.80;5.65;;;;;;;;;;6300777;22;20783;-62
2022/11/11 00:38:48;;;;;;;37.20;5.95;;;;;;;;;;6278425;22;20029;-61
2022/11/11 00:41:19;;;;;;;43.90;5.63;;;;;;;;;;6300922;22;20023;-61
2022/11/11 00:43:53;;;;;;;42.38;7.22;;;;;;;;;;6299712;22;20098;-62
2022/11/11 00:51:59;;;;;;;45.70;6.63;;;;;;;;;;6299709;22;20019;-56
2022/11/11 00:54:34;;;;;;;43.08;6.28;;;;;;;;;;6300523;22;20066;-60
2022/11/11 00:57:01;;;;;;;52.28;6.85;;;;;;;;;;6299743;22;20543;-60
2022/11/11 00:59:28;;;;;;;40.30;6.13;;;;;;;;;;6300289;22;20015;-61
2022/11/11 01:02:09;;;;;;;44.15;6.65;;;;;;;;;;6299317;22;20352;-60
2022/11/11 01:04:36;;;;;;;45.97;6.97;;;;;;;;;;6300758;22;20019;-60
2022/11/11 01:07:10;;;;;;;45.85;6.70;;;;;;;;;;6298668;22;20465;-61
2022/11/11 01:09:44;;;;;;;61.70;6.28;;;;;;;;;;6299830;22;20038;-60
2022/11/11 01:12:17;;;;;;;47.95;7.32;;;;;;;;;;6300963;22;20054;-59
2022/11/11 01:14:44;;;;;;;56.25;7.05;;;;;;;;;;6298564;22;20037;-58
2022/11/11 01:17:12;;;;;;;42.80;5.95;;;;;;;;;;6299369;22;20034;-59
2022/11/11 01:19:45;;;;;;;53.15;7.47;;;;;;;;;;6300324;22;20387;-58
2022/11/11 01:22:13;;;;;;;49.05;7.50;;;;;;;;;;6298571;22;20089;-58
2022/11/11 01:24:46;;;;;;;46.65;6.93;;;;;;;;;;6299654;22;20475;-58
2022/11/11 01:27:13;;;;;;;55.97;7.90;;;;;;;;;;6300681;22;20134;-59
2022/11/11 01:29:47;;;;;;;52.30;7.75;;;;;;;;;;6298158;22;20015;-54
2022/11/11 01:32:15;;;;;;;68.57;8.77;;;;;;;;;;6300680;22;20342;-58
2022/11/11 01:34:48;;;;;;;62.03;7.40;;;;;;;;;;6299986;22;20019;-58
2022/11/11 01:37:16;;;;;;;51.38;6.70;;;;;;;;;;6299078;22;20022;-58
2022/11/11 01:39:43;;;;;;;41.80;5.90;;;;;;;;;;6301059;22;20023;-58
2022/11/11 01:42:17;;;;;;;43.83;6.70;;;;;;;;;;6300470;22;20027;-58
2022/11/11 01:44:46;;;;;;;60.47;7.65;;;;;;;;;;6299664;22;20093;-57
2022/11/11 01:47:21;;;;;;;48.25;7.95;;;;;;;;;;6300371;22;20023;-59
2022/11/11 01:49:48;;;;;;;;;;;;;;;;;;6301347;22;20123;-60
2022/11/11 01:52:24;;;;;;;62.70;7.88;;;;;;;;;;6299043;22;20351;-60
2022/11/11 01:54:57;;;;;;;38.95;7.20;;;;;;;;;;6300294;22;20024;-61
2022/11/11 01:57:33;;;;;;;46.70;7.85;;;;;;;;;;6300805;22;20019;-60
2022/11/11 02:00:05;;;;;;;54.72;8.90;;;;;;;;;;6299862;22;20019;-60
2022/11/11 02:02:46;;;;;;;51.90;7.68;;;;;;;;;;6299415;22;20034;-60
2022/11/11 02:08:10;;;;;;;40.25;6.43;;;;;;;;;;6299694;22;20015;-59
2022/11/11 02:10:42;;;;;;;44.70;8.40;;;;;;;;;;6300236;22;20472;-60
2022/11/11 02:16:03;;;;;;;44.85;7.47;;;;;;;;;;6299651;22;20094;-60
2022/11/11 02:18:36;;;;;;;49.15;7.88;;;;;;;;;;6300669;22;20073;-61
2022/11/11 02:21:04;;;;;;;43.05;7.28;;;;;;;;;;6299366;22;20031;-60
2022/11/11 02:23:46;;;;;;;51.17;7.55;;;;;;;;;;6296974;22;20023;-60
2022/11/11 02:26:16;;;;;;;58.67;7.53;;;;;;;;;;6300891;22;20387;-62
2022/11/11 02:28:49;;;;;;;44.72;7.05;;;;;;;;;;6300238;22;20494;-62
2022/11/11 02:31:31;;;;;;;38.30;6.38;;;;;;;;;;6302741;22;20046;-62
2022/11/11 02:34:04;;;;;;;50.72;7.35;;;;;;;;;;6275334;22;20019;-62
2022/11/11 02:36:39;;;;;;;45.70;5.82;;;;;;;;;;6301558;22;20460;-62
2022/11/11 02:39:06;;;;;;;;;;;;;;;;;;6301606;22;20019;-62
2022/11/11 02:44:27;;;;;;;50.00;7.53;;;;;;;;;;6302274;22;20084;-58
2022/11/11 02:46:54;;;;;;;54.80;8.15;;;;;;;;;;6299724;22;20361;-54
2022/11/11 02:49:29;;;;;;;37.45;7.03;;;;;;;;;;6301383;22;20019;-53
2022/11/11 02:51:56;;;;;;;39.50;6.55;;;;;;;;;;6300833;22;20027;-52
2022/11/11 02:54:23;;;;;;;46.63;7.15;;;;;;;;;;6301847;22;20096;-54
2022/11/11 02:57:07;;;;;;;46.13;6.82;;;;;;;;;;6301260;22;20019;-54
2022/11/11 02:59:36;;;;;;;47.17;8.75;;;;;;;;;;6302341;22;20019;-54
2022/11/11 03:02:16;;;;;;;51.65;7.80;;;;;;;;;;6299420;22;20031;-53
2022/11/11 03:04:43;;;;;;;55.78;8.13;;;;;;;;;;6300389;22;20019;-60
2022/11/11 03:07:18;;;;;;;46.22;7.10;;;;;;;;;;6301358;22;20468;-66
2022/11/11 03:09:45;;;;;;;55.95;8.18;;;;;;;;;;6301620;22;20047;-65
2022/11/11 03:12:12;;;;;;;56.42;7.35;;;;;;;;;;6302175;22;20080;-64
2022/11/11 03:14:46;;;;;;;54.55;8.10;;;;;;;;;;6300694;22;20076;-65
2022/11/11 03:23:05;;;;;;;37.25;6.40;;;;;;;;;;6297775;22;20516;-61
2022/11/11 03:25:44;;;;;;;48.88;7.70;;;;;;;;;;6302132;22;20045;-59
2022/11/11 03:28:13;;;;;;;50.58;7.60;;;;;;;;;;6300142;22;20107;-58
2022/11/11 03:30:47;;;;;;;61.15;8.38;;;;;;;;;;6301189;22;20106;-58
2022/11/11 03:33:15;;;;;;;48.25;7.68;;;;;;;;;;6300281;22;20019;-59
2022/11/11 03:35:42;;;;;;;47.97;7.95;;;;;;;;;;6299985;22;20019;-58
2022/11/11 03:38:23;;;;;;;39.67;6.85;;;;;;;;;;6301307;22;20027;-59
2022/11/11 03:40:52;;;;;;;42.05;7.55;;;;;;;;;;6300592;22;20464;-56
2022/11/11 03:43:30;;;;;;;59.10;8.73;;;;;;;;;;6301374;22;20039;-60
2022/11/11 03:45:58;;;;;;;50.20;8.13;;;;;;;;;;6300114;22;20034;-56
2022/11/11 03:48:32;;;;;;;45.92;7.18;;;;;;;;;;6300340;22;20047;-55
2022/11/11 03:51:00;;;;;;;41.90;7.57;;;;;;;;;;6301345;22;20041;-55
2022/11/11 03:53:27;;;;;;;44.78;7.22;;;;;;;;;;6300973;22;20133;-54
2022/11/11 03:56:00;;;;;;;55.78;8.55;;;;;;;;;;6299674;22;20034;-55
2022/11/11 03:58:27;;;;;;;51.60;8.65;;;;;;;;;;6300544;22;20408;-56
2022/11/11 04:10:21;;;;;;;56.75;8.32;;;;;;;;;;6301240;22;20034;-59
2022/11/11 04:26:54;;;;;;;49.80;8.45;;;;;;;;;;6269742;22;20099;-52
2022/11/11 04:29:28;;;;;;;57.53;7.50;;;;;;;;;;6269048;22;20666;-56
2022/11/11 04:34:54;;;;;;;48.70;8.43;;;;;;;;;;6269709;22;20015;-54
2022/11/11 04:37:22;;;;;;;48.60;7.93;;;;;;;;;;6270275;22;20042;-54
2022/11/11 04:42:48;;;;;;;65.55;9.35;;;;;;;;;;6269965;22;20024;-53
2022/11/11 04:45:32;;;;;;;50.35;8.10;;;;;;;;;;6268538;22;20050;-53
2022/11/11 04:47:59;;;;;;;49.38;7.07;;;;;;;;;;6268983;22;20026;-54
2022/11/11 04:50:35;;;;;;;55.75;7.80;;;;;;;;;;6271273;22;20052;-54
2022/11/11 04:53:03;;;;;;;60.45;8.85;;;;;;;;;;6268172;22;20069;-54
2022/11/11 04:58:25;;;;;;;49.90;7.28;;;;;;;;;;6268850;22;20019;-58
2022/11/11 05:00:52;;;;;;;43.70;7.72;;;;;;;;;;6269910;22;20417;-63
2022/11/11 05:03:33;;;;;;;53.80;7.88;;;;;;;;;;6298447;22;20092;-62
2022/11/11 05:08:56;;;;;;;56.15;7.82;;;;;;;;;;6302116;22;20022;-62
2022/11/11 05:11:31;;;;;;;52.72;8.95;;;;;;;;;;6301473;22;20019;-63
2022/11/11 05:22:39;;;;;;;56.80;9.00;;;;;;;;;;6297637;22;20349;-57
2022/11/11 05:25:25;;;;;;;53.00;8.32;;;;;;;;;;6299674;22;20045;-58
2022/11/11 05:27:53;;;;;;;53.78;7.32;;;;;;;;;;6300771;22;20051;-58
2022/11/11 05:30:26;;;;;;;70.60;9.45;;;;;;;;;;6301040;22;20024;-57
2022/11/11 05:32:56;;;;;;;54.47;9.18;;;;;;;;;;6298884;22;20019;-57
2022/11/11 05:35:30;;;;;;;57.42;8.88;;;;;;;;;;6300282;22;20634;-58
2022/11/11 05:38:20;;;;;;;48.05;8.18;;;;;;;;;;6300569;22;20098;-54
2022/11/11 05:40:54;;;;;;;49.85;8.00;;;;;;;;;;6300768;22;20030;-62
2022/11/11 05:43:28;;;;;;;51.95;8.23;;;;;;;;;;6301131;22;20019;-62
2022/11/11 05:46:03;;;;;;;44.60;7.95;;;;;;;;;;6301017;22;20499;-62
2022/11/11 05:48:31;;;;;;;38.35;7.60;;;;;;;;;;6299919;22;20459;-62
2022/11/11 05:51:05;;;;;;;39.95;6.78;;;;;;;;;;6298668;22;20106;-63
2022/11/11 05:53:39;;;;;;;32.00;6.45;;;;;;;;;;6300459;22;20322;-63
2022/11/11 05:56:07;;;;;;;36.38;6.55;;;;;;;;;;6300310;22;20547;-64
2022/11/11 05:58:41;;;;;;;24.52;4.80;;;;;;;;;;6300981;22;20543;-57
2022/11/11 06:01:20;;;;;;;36.88;6.45;;;;;;;;;;6302964;22;20661;-57
2022/11/11 06:04:01;;;;;;;32.45;5.43;;;;;;;;;;6271023;22;20469;-58
2022/11/11 06:06:40;;;;;;;29.48;5.38;;;;;;;;;;6270798;22;20352;-57
2022/11/11 06:09:07;;;;;;;24.92;4.85;;;;;;;;;;6271363;22;20027;-57
2022/11/11 06:11:41;;;;;;;21.52;3.50;;;;;;;;;;6271873;22;20016;-58
2022/11/11 06:14:09;;;;;;;31.67;5.28;;;;;;;;;;6272259;22;20030;-58
2022/11/11 06:16:36;;;;;;;22.10;4.05;;;;;;;;;;6272341;22;20149;-58
2022/11/11 06:19:09;;;;;;;21.38;3.70;;;;;;;;;;6272762;22;20020;-65
2022/11/11 06:26:11;;;;;;;24.60;4.30;;;;;;;;;;6175787;23;20055;-64
2022/11/11 06:27:32;;;;;;;20.33;3.90;;;;;;;;;;6269367;22;20030;-65
2022/11/11 06:30:06;;;;;;;21.80;5.03;;;;;;;;;;6271884;22;20023;-65
2022/11/11 06:32:54;;;;;;;12.55;3.33;;;;;;;;;;6270883;22;20020;-63
2022/11/11 06:35:28;;;;;;;11.55;3.55;;;;;;;;;;6271117;22;20358;-52
2022/11/11 06:37:56;;;;;;;24.60;4.72;;;;;;;;;;6271341;22;20030;-64
2022/11/11 06:40:23;;;;;;;21.17;4.47;;;;;;;;;;6245234;22;20019;-65
2022/11/11 06:42:59;;;;;;;13.65;3.35;;;;;;;;;;6270960;22;20031;-65
2022/11/11 06:45:28;;;;;;;28.15;4.35;;;;;;;;;;6272608;22;20024;-65
2022/11/11 06:48:02;;;;;;;26.08;5.20;;;;;;;;;;6270554;22;20024;-65
2022/11/11 06:50:29;;;;;;;18.10;4.22;;;;;;;;;;6271985;22;20020;-65
2022/11/11 06:53:04;;;;;;;25.73;5.07;;;;;;;;;;6271438;22;20034;-51
2022/11/11 06:55:38;;;;;;;28.80;5.00;;;;;;;;;;6272248;22;20026;-62
2022/11/11 06:58:10;;;;;;;16.55;3.92;;;;;;;;;;6271377;22;20388;-63
2022/11/11 07:00:44;;;;;;;20.33;4.72;;;;;;;;;;6271298;22;20326;-63
2022/11/11 07:03:19;;;;;;;18.55;4.35;;;;;;;;;;6292601;22;20510;-63
2022/11/11 07:06:00;;;;;;;22.13;4.07;;;;;;;;;;6300913;22;20025;-63
2022/11/11 07:08:28;;;;;;;19.77;4.68;;;;;;;;;;6301464;22;20351;-62
2022/11/11 07:11:01;;;;;;;28.52;4.93;;;;;;;;;;6302564;22;20023;-59
2022/11/11 07:13:40;;;;;;;28.35;5.32;;;;;;;;;;6301998;22;20019;-60
2022/11/11 07:16:13;;;;;;;26.08;5.45;;;;;;;;;;6301397;22;20073;-62
2022/11/11 07:18:41;;;;;;;29.63;5.53;;;;;;;;;;6301944;22;20360;-62
2022/11/11 07:21:08;;;;;;;32.78;6.90;;;;;;;;;;6302477;22;20274;-62
2022/11/11 07:23:48;;;;;;;33.88;5.55;;;;;;;;;;6300861;22;20019;-64
2022/11/11 07:26:15;;;;;;;24.50;4.47;;;;;;;;;;6302017;22;20054;-62
2022/11/11 07:28:50;;;;;;;26.63;4.38;;;;;;;;;;6301747;22;20352;-62
2022/11/11 07:31:17;;;;;;;;;;;;;;;;;;6301933;22;20062;-60
2022/11/11 07:33:44;;;;;;;33.38;6.90;;;;;;;;;;6301249;22;19919;-55
2022/11/11 07:36:18;;;;;;;36.88;6.90;;;;;;;;;;6301908;22;20026;-54
2022/11/11 07:38:45;;;;;;;28.63;6.38;;;;;;;;;;6298380;22;20025;-51
2022/11/11 07:41:19;;;;;;;31.63;6.05;;;;;;;;;;6301226;22;20102;-58
2022/11/11 07:43:46;;;;;;;37.20;5.80;;;;;;;;;;6301788;22;20027;-52
2022/11/11 07:46:14;;;;;;;42.33;7.07;;;;;;;;;;6301446;22;20099;-52
2022/11/11 07:48:47;;;;;;;42.88;7.03;;;;;;;;;;6301786;22;20019;-53
2022/11/11 07:51:14;;;;;;;43.50;7.10;;;;;;;;;;6302963;22;20023;-65
2022/11/11 07:53:49;;;;;;;34.08;6.10;;;;;;;;;;6301778;22;20045;-59
2022/11/11 07:56:16;;;;;;;35.20;7.07;;;;;;;;;;6301844;22;20348;-60
2022/11/11 07:58:43;;;;;;;37.85;7.10;;;;;;;;;;6300991;22;20507;-59
2022/11/11 08:01:16;;;;;;;34.15;6.05;;;;;;;;;;6301950;22;20054;-59
2022/11/11 08:03:50;;;;;;;44.08;8.40;;;;;;;;;;6301220;22;20041;-59
2022/11/11 08:06:23;;;;;;;46.40;6.97;;;;;;;;;;6301008;22;20034;-59
2022/11/11 08:08:50;;;;;;;46.95;8.18;;;;;;;;;;6300205;22;20561;-60
2022/11/11 08:13:39;;;;;;;39.60;8.35;;;;;;;;;;6302190;22;20062;-55
2022/11/11 08:14:12;;;;;;;41.33;7.13;;;;;;;;;;6300140;22;20015;-53
2022/11/11 08:16:39;;;;;;;42.28;6.55;;;;;;;;;;6300988;22;20038;-55
2022/11/11 08:19:12;;;;;;;40.40;7.70;;;;;;;;;;6301706;22;20019;-51
2022/11/11 08:21:40;;;;;;;43.97;7.22;;;;;;;;;;6301536;22;20023;-55
2022/11/11 08:24:15;;;;;;;32.88;6.50;;;;;;;;;;6273843;22;20456;-53
2022/11/11 08:27:02;;;;;;;27.52;5.38;;;;;;;;;;6301586;22;20019;-63
2022/11/11 08:29:35;;;;;;;39.78;7.10;;;;;;;;;;6300561;22;20023;-58
2022/11/11 08:32:03;;;;;;;52.83;6.88;;;;;;;;;;6301963;22;20029;-60
2022/11/11 08:34:30;;;;;;;33.35;6.22;;;;;;;;;;6299289;22;20019;-61
2022/11/11 08:37:03;;;;;;;38.90;5.90;;;;;;;;;;6299523;22;20464;-61
2022/11/11 08:39:30;;;;;;;38.58;6.78;;;;;;;;;;6300763;22;20061;-61
2022/11/11 08:42:05;;;;;;;44.53;7.10;;;;;;;;;;6302326;22;20106;-61
2022/11/11 08:44:32;;;;;;;43.80;8.07;;;;;;;;;;6302127;22;20240;-61
2022/11/11 08:47:06;;;;;;;47.92;6.85;;;;;;;;;;6300824;22;20109;-62
2022/11/11 08:49:33;;;;;;;45.85;7.10;;;;;;;;;;6300675;22;20408;-58
2022/11/11 08:52:00;;;;;;;46.70;7.90;;;;;;;;;;6301290;22;20341;-58
2022/11/11 08:54:35;;;;;;;37.95;6.82;;;;;;;;;;6301483;22;20469;-58
2022/11/11 08:57:02;;;;;;;67.07;9.13;;;;;;;;;;6301982;22;20023;-58
2022/11/11 08:59:29;;;;;;;37.22;7.07;;;;;;;;;;6300899;22;20536;-58
2022/11/11 09:02:09;;;;;;;44.10;7.35;;;;;;;;;;6301528;22;20038;-58
2022/11/11 09:04:43;;;;;;;40.75;6.70;;;;;;;;;;6300921;22;20110;-58
2022/11/11 09:07:21;;;;;;;52.22;8.10;;;;;;;;;;6299209;22;20047;-60
2022/11/11 09:09:48;;;;;;;40.90;6.97;;;;;;;;;;6301389;22;20016;-58
2022/11/11 09:12:15;;;;;;;46.88;7.53;;;;;;;;;;6301786;22;20015;-58
2022/11/11 09:14:49;;;;;;;37.53;5.95;;;;;;;;;;6299529;22;20023;-58
2022/11/11 09:17:17;;;;;;;44.38;7.05;;;;;;;;;;6300718;22;20344;-59
2022/11/11 09:19:50;;;;;;;37.22;7.03;;;;;;;;;;6300011;22;20098;-58
2022/11/11 09:22:17;;;;;;;35.25;6.97;;;;;;;;;;6299270;22;20098;-58
2022/11/11 09:24:45;;;;;;;40.50;6.68;;;;;;;;;;6300654;22;20023;-56
2022/11/11 09:27:18;;;;;;;57.17;8.65;;;;;;;;;;6300915;22;20510;-62
2022/11/11 09:29:46;;;;;;;58.25;8.85;;;;;;;;;;6300186;22;20104;-64
2022/11/11 09:32:19;;;;;;;51.55;8.07;;;;;;;;;;6302468;22;20462;-65
2022/11/11 09:34:46;;;;;;;50.90;7.78;;;;;;;;;;6302803;22;20019;-65
2022/11/11 09:37:21;;;;;;;46.92;7.60;;;;;;;;;;6301041;22;20092;-65
2022/11/11 09:39:48;;;;;;;;;;;;;;;;;;6303689;22;20026;-65
2022/11/11 09:42:34;;;;;;;55.08;8.18;;;;;;;;;;6302573;22;20255;-66
2022/11/11 09:45:08;;;;;;;54.78;9.18;;;;;;;;;;6302298;22;20061;-65
2022/11/11 09:47:35;;;;;;;43.63;6.82;;;;;;;;;;6303473;22;20349;-59
2022/11/11 09:50:13;;;;;;;55.78;8.50;;;;;;;;;;6302327;22;20015;-59
2022/11/11 09:52:56;;;;;;;63.08;9.07;;;;;;;;;;6301855;22;20102;-59
2022/11/11 09:55:29;;;;;;;54.15;7.30;;;;;;;;;;6302341;22;20026;-59
2022/11/11 09:57:58;;;;;;;47.17;8.38;;;;;;;;;;6301586;22;20019;-59
2022/11/11 10:00:27;;;;;;;45.78;7.85;;;;;;;;;;6303037;22;20030;-59
2022/11/11 10:03:29;;;;;;;54.30;8.50;;;;;;;;;;6260696;22;20032;-60
2022/11/11 10:06:03;;;;;;;52.85;8.80;;;;;;;;;;6270397;22;20095;-62
2022/11/11 10:08:40;;;;;;;46.03;7.55;;;;;;;;;;6271256;22;20030;-62
2022/11/11 10:11:14;;;;;;;54.60;8.45;;;;;;;;;;6273288;22;20027;-62
2022/11/11 10:13:48;;;;;;;47.47;7.57;;;;;;;;;;6270023;22;20020;-62
2022/11/11 10:16:31;;;;;;;45.92;7.22;;;;;;;;;;6271828;22;20450;-62
2022/11/11 10:19:01;;;;;;;48.95;7.68;;;;;;;;;;6271067;22;20016;-62
2022/11/11 10:21:41;;;;;;;46.72;7.38;;;;;;;;;;6271132;22;20360;-61
2022/11/11 10:24:30;;;;;;;48.60;8.13;;;;;;;;;;6271539;22;20499;-62
2022/11/11 10:27:22;;;;;;;51.50;8.60;;;;;;;;;;6272560;22;20023;-52
2022/11/11 10:29:49;;;;;;;52.20;7.95;;;;;;;;;;6270763;22;20020;-55
2022/11/11 10:32:25;;;;;;;53.72;8.70;;;;;;;;;;6270979;22;20350;-55
2022/11/11 10:34:54;;;;;;;57.00;8.52;;;;;;;;;;6272408;22;20024;-55
2022/11/11 10:37:36;;;;;;;40.88;7.25;;;;;;;;;;6271745;22;20105;-53
2022/11/11 10:40:09;;;;;;;44.35;6.65;;;;;;;;;;6271727;22;20024;-65
2022/11/11 10:42:43;;;;;;;47.72;7.88;;;;;;;;;;6270692;22;20808;-61
2022/11/11 10:45:14;;;;;;;52.22;7.55;;;;;;;;;;6272518;22;20022;-65
2022/11/11 10:47:47;;;;;;;51.58;8.23;;;;;;;;;;6270871;22;20027;-66
2022/11/11 10:50:20;;;;;;;50.33;7.72;;;;;;;;;;6270041;22;20023;-65
2022/11/11 10:52:47;;;;;;;41.58;7.65;;;;;;;;;;6271445;22;20102;-65
2022/11/11 10:55:29;;;;;;;45.17;7.65;;;;;;;;;;6269042;22;20103;-65
2022/11/11 10:58:02;;;;;;;49.45;7.53;;;;;;;;;;6269790;22;20096;-65
2022/11/11 11:00:37;;;;;;;58.92;7.93;;;;;;;;;;6271114;22;20425;-58
2022/11/11 11:03:16;;;;;;;44.28;7.22;;;;;;;;;;6287298;22;20487;-54
2022/11/11 11:06:19;;;;;;;50.50;7.30;;;;;;;;;;6300941;22;20051;-53
2022/11/11 11:09:09;;;;;;;36.85;6.43;;;;;;;;;;6270268;22;20023;-56
2022/11/11 11:11:47;;;;;;;55.75;8.88;;;;;;;;;;6289548;22;20015;-53
2022/11/11 11:14:27;;;;;;;43.70;7.50;;;;;;;;;;6302079;22;20020;-57
2022/11/11 11:17:08;;;;;;;45.78;7.80;;;;;;;;;;6302611;22;20094;-55
2022/11/11 11:19:41;;;;;;;53.47;7.43;;;;;;;;;;6301802;22;20057;-58
2022/11/11 11:22:09;;;;;;;56.65;8.35;;;;;;;;;;6300871;22;20102;-59
2022/11/11 11:24:37;;;;;;;47.03;7.50;;;;;;;;;;6301718;22;20023;-59
2022/11/11 11:27:10;;;;;;;49.67;8.05;;;;;;;;;;6301701;22;20019;-59
2022/11/11 11:29:41;;;;;;;48.22;7.88;;;;;;;;;;6300755;22;20019;-59
2022/11/11 11:32:27;;;;;;;39.65;6.95;;;;;;;;;;6300799;22;20023;-59
2022/11/11 11:34:55;;;;;;;42.05;6.20;;;;;;;;;;6300446;22;20025;-59
2022/11/11 11:37:29;;;;;;;43.28;6.78;;;;;;;;;;6302010;22;20016;-59
2022/11/11 11:40:01;;;;;;;48.53;7.78;;;;;;;;;;6301567;22;20051;-60
2022/11/11 11:42:36;;;;;;;37.70;7.07;;;;;;;;;;6301460;22;20468;-60
2022/11/11 11:45:15;;;;;;;41.10;6.65;;;;;;;;;;6301474;22;20107;-60
2022/11/11 11:48:14;;;;;;;33.65;6.25;;;;;;;;;;6301451;22;20015;-60
2022/11/11 11:51:07;;;;;;;32.17;5.85;;;;;;;;;;6301405;22;20082;-60
2022/11/11 11:54:01;;;;;;;44.92;5.97;;;;;;;;;;6301475;22;20015;-59
2022/11/11 11:56:37;;;;;;;37.60;6.32;;;;;;;;;;6223854;22;20021;-63
2022/11/11 11:59:13;;;;;;;42.20;7.13;;;;;;;;;;6302091;22;20094;-49
2022/11/11 12:02:06;;;;;;;45.20;5.38;;;;;;;;;;6302199;22;20413;-63
2022/11/11 12:04:49;;;;;;;35.90;5.90;;;;;;;;;;6270195;22;20396;-63
2022/11/11 12:07:52;;;;;;;26.55;5.75;;;;;;;;;;6269420;22;20026;-63
2022/11/11 12:10:28;;;;;;;40.08;6.13;;;;;;;;;;6145598;23;20128;-62
2022/11/11 12:12:55;;;;;;;36.72;6.03;;;;;;;;;;6253473;22;20485;-63
2022/11/11 12:15:29;;;;;;;46.00;6.38;;;;;;;;;;6271022;22;20536;-57
2022/11/11 12:18:15;;;;;;;31.65;6.68;;;;;;;;;;6269514;22;20552;-66
2022/11/11 12:20:55;;;;;;;39.38;5.97;;;;;;;;;;6271093;22;20020;-63
2022/11/11 12:23:40;;;;;;;37.78;6.38;;;;;;;;;;6271151;22;20352;-63
2022/11/11 12:26:24;;;;;;;36.45;6.22;;;;;;;;;;6270754;22;20107;-63
2022/11/11 12:29:06;;;;;;;30.85;5.22;;;;;;;;;;6271196;22;20132;-63
2022/11/11 12:31:43;;;;;;;33.92;6.13;;;;;;;;;;6271598;22;20015;-63
2022/11/11 12:34:25;;;;;;;42.40;7.60;;;;;;;;;;6269500;22;20023;-59
2022/11/11 12:37:04;;;;;;;30.00;5.68;;;;;;;;;;6270654;22;20020;-52
2022/11/11 12:39:41;;;;;;;40.53;7.30;;;;;;;;;;6270169;22;20106;-53
2022/11/11 12:42:22;;;;;;;41.92;6.18;;;;;;;;;;6270821;22;20222;-53
2022/11/11 12:45:14;;;;;;;39.17;5.88;;;;;;;;;;6269981;22;20023;-52
2022/11/11 12:47:44;;;;;;;43.72;6.88;;;;;;;;;;6270012;22;20015;-51
2022/11/11 12:50:18;;;;;;;36.85;6.97;;;;;;;;;;6270254;22;20027;-53
2022/11/11 12:53:01;;;;;;;45.40;6.35;;;;;;;;;;6269038;22;20024;-49
2022/11/11 12:55:40;;;;;;;36.50;6.05;;;;;;;;;;6269088;22;20053;-59
2022/11/11 12:58:07;;;;;;;45.00;6.38;;;;;;;;;;6269462;22;20026;-60
2022/11/11 13:00:38;;;;;;;34.92;5.97;;;;;;;;;;6269958;22;20073;-60
2022/11/11 13:03:12;;;;;;;;;;;;;;;;;;6284146;22;20384;-59
2022/11/11 13:06:16;;;;;;;37.60;5.85;;;;;;;;;;6298909;22;20403;-59
2022/11/11 13:09:02;;;;;;;42.20;6.40;;;;;;;;;;6281285;22;20356;-60
2022/11/11 13:11:55;;;;;;;34.53;5.47;;;;;;;;;;6300269;22;20094;-59
2022/11/11 13:14:28;;;;;;;27.73;5.78;;;;;;;;;;6299937;22;20420;-60
2022/11/11 13:17:02;;;;;;;45.03;6.75;;;;;;;;;;6300146;22;20102;-59
2022/11/11 13:19:44;;;;;;;41.13;6.57;;;;;;;;;;6300504;22;20110;-60
2022/11/11 13:22:27;;;;;;;37.28;6.25;;;;;;;;;;6299450;22;20025;-60
2022/11/11 13:24:55;;;;;;;38.40;6.57;;;;;;;;;;6300563;22;20103;-60
2022/11/11 13:27:37;;;;;;;38.42;6.00;;;;;;;;;;6301058;22;20015;-60
2022/11/11 13:30:11;;;;;;;37.80;6.72;;;;;;;;;;6301847;22;20023;-60
2022/11/11 13:32:47;;;;;;;44.30;6.15;;;;;;;;;;6300760;22;20050;-60
2022/11/11 13:35:24;;;;;;;44.25;7.00;;;;;;;;;;6301214;22;20547;-57
2022/11/11 13:37:51;;;;;;;33.33;5.20;;;;;;;;;;6301133;22;20106;-58
2022/11/11 13:40:40;;;;;;;35.80;7.20;;;;;;;;;;6299423;22;20019;-58
2022/11/11 13:43:16;;;;;;;34.83;5.88;;;;;;;;;;6300243;22;20106;-57
2022/11/11 13:45:52;;;;;;;38.65;6.18;;;;;;;;;;6301284;22;20027;-58
2022/11/11 13:48:27;;;;;;;34.05;5.50;;;;;;;;;;6300060;22;20397;-56
2022/11/11 13:51:21;;;;;;;41.25;6.43;;;;;;;;;;6300983;22;20106;-59
2022/11/11 13:53:48;;;;;;;40.42;7.95;;;;;;;;;;6300058;22;20024;-57
2022/11/11 13:56:36;;;;;;;32.33;5.65;;;;;;;;;;6300711;22;20026;-65
2022/11/11 13:59:03;;;;;;;41.90;6.63;;;;;;;;;;6299423;22;20037;-66
2022/11/11 14:01:39;;;;;;;41.60;7.55;;;;;;;;;;6299674;22;20023;-65
2022/11/11 14:04:16;;;;;;;31.15;5.70;;;;;;;;;;6299399;22;20027;-65
2022/11/11 14:06:52;;;;;;;38.85;6.63;;;;;;;;;;6299428;22;20090;-65
2022/11/11 14:09:44;;;;;;;38.08;6.45;;;;;;;;;;6273660;22;20595;-65
2022/11/11 14:12:33;;;;;;;32.28;6.00;;;;;;;;;;6300274;22;20118;-59
2022/11/11 14:15:02;;;;;;;43.47;5.78;;;;;;;;;;6300077;22;20345;-56
2022/11/11 14:17:43;;;;;;;37.25;5.28;;;;;;;;;;6299392;22;20921;-59
2022/11/11 14:20:29;;;;;;;43.35;6.20;;;;;;;;;;6302739;22;20050;-54
2022/11/11 14:23:18;;;;;;;44.15;6.10;;;;;;;;;;6302021;22;20023;-53
2022/11/11 14:25:46;;;;;;;38.38;6.75;;;;;;;;;;6301321;22;20023;-54
2022/11/11 14:28:20;;;;;;;35.45;6.13;;;;;;;;;;6302981;22;20015;-56
2022/11/11 14:30:47;;;;;;;39.53;6.80;;;;;;;;;;6302176;22;20019;-65
2022/11/11 14:33:34;;;;;;;37.25;6.78;;;;;;;;;;6301274;22;20041;-59
2022/11/11 14:36:17;;;;;;;36.58;6.45;;;;;;;;;;6302442;22;20041;-59
2022/11/11 14:38:57;;;;;;;31.90;5.53;;;;;;;;;;6302221;22;20025;-59
2022/11/11 14:41:43;;;;;;;31.08;6.28;;;;;;;;;;6302429;22;20019;-59
2022/11/11 14:44:29;;;;;;;42.28;6.45;;;;;;;;;;6302012;22;20102;-59
2022/11/11 14:47:02;;;;;;;49.05;7.68;;;;;;;;;;6300522;22;20332;-59
2022/11/11 14:49:41;;;;;;;54.78;7.57;;;;;;;;;;6302703;22;20026;-64
2022/11/11 14:52:27;;;;;;;36.88;6.65;;;;;;;;;;6302727;22;20220;-58
2022/11/11 14:55:02;;;;;;;32.65;5.93;;;;;;;;;;6300924;22;20095;-56
2022/11/11 14:57:31;;;;;;;45.40;6.60;;;;;;;;;;6301589;22;20114;-57
2022/11/11 14:59:59;;;;;;;36.85;6.68;;;;;;;;;;6301628;22;20094;-58
2022/11/11 15:02:44;;;;;;;41.30;6.68;;;;;;;;;;6300893;22;20540;-56
2022/11/11 15:05:15;;;;;;;38.30;6.10;;;;;;;;;;6301010;22;20026;-58
2022/11/11 15:07:49;;;;;;;37.42;5.55;;;;;;;;;;6301231;22;20142;-64
2022/11/11 15:10:23;;;;;;;46.05;7.05;;;;;;;;;;6301338;22;20019;-58
2022/11/11 15:12:57;;;;;;;38.75;6.10;;;;;;;;;;6301636;22;20023;-59
2022/11/11 15:15:24;;;;;;;;;;;;;;;;;;6302834;22;20106;-58
2022/11/11 15:18:14;;;;;;;40.35;5.88;;;;;;;;;;6301245;22;20005;-59
2022/11/11 15:20:44;;;;;;;53.45;7.38;;;;;;;;;;6300260;22;20118;-58
2022/11/11 15:23:31;;;;;;;36.70;6.85;;;;;;;;;;6301995;22;20015;-58
2022/11/11 15:26:13;;;;;;;40.70;6.07;;;;;;;;;;6300512;22;20548;-63
2022/11/11 15:28:53;;;;;;;44.42;6.55;;;;;;;;;;6301394;22;20019;-57
2022/11/11 15:31:32;;;;;;;47.45;7.50;;;;;;;;;;6301322;22;20061;-56
2022/11/11 15:34:08;;;;;;;41.55;6.75;;;;;;;;;;6300907;22;20098;-55
2022/11/11 15:36:51;;;;;;;38.05;6.53;;;;;;;;;;6300777;22;20421;-53
2022/11/11 15:39:27;;;;;;;43.90;7.03;;;;;;;;;;6300968;22;20023;-52
2022/11/11 15:41:54;;;;;;;40.70;6.32;;;;;;;;;;6300255;22;20544;-51
2022/11/11 15:44:29;;;;;;;42.55;7.97;;;;;;;;;;6300863;22;20019;-55
2022/11/11 15:46:57;;;;;;;44.17;7.00;;;;;;;;;;6300263;22;20025;-64
2022/11/11 15:49:37;;;;;;;38.47;6.30;;;;;;;;;;6301805;22;20023;-53
2022/11/11 15:52:06;;;;;;;40.42;5.85;;;;;;;;;;6301904;22;20057;-48
2022/11/11 15:54:40;;;;;;;30.48;6.63;;;;;;;;;;6300826;22;20102;-53
2022/11/11 15:57:27;;;;;;;31.45;5.53;;;;;;;;;;6301553;22;20471;-53
2022/11/11 16:00:02;;;;;;;50.15;7.53;;;;;;;;;;6300669;22;20551;-54
2022/11/11 16:02:41;;;;;;;42.92;6.30;;;;;;;;;;6301681;22;20023;-48
2022/11/11 16:05:23;;;;;;;38.50;6.50;;;;;;;;;;6271737;22;20030;-58
2022/11/11 16:07:52;;;;;;;38.40;6.28;;;;;;;;;;6267892;22;20095;-64
2022/11/11 16:10:33;;;;;;;42.10;7.00;;;;;;;;;;6266124;22;20023;-64
2022/11/11 16:13:15;;;;;;;36.33;6.60;;;;;;;;;;6270050;22;20276;-65
2022/11/11 16:16:00;;;;;;;35.95;5.75;;;;;;;;;;6269065;22;20468;-64
2022/11/11 16:18:30;;;;;;;35.97;6.30;;;;;;;;;;6269501;22;20056;-65
2022/11/11 16:21:03;;;;;;;35.25;5.60;;;;;;;;;;6269122;22;20543;-64
2022/11/11 16:23:31;;;;;;;36.47;5.38;;;;;;;;;;6270091;22;20051;-55
2022/11/11 16:26:06;;;;;;;31.27;4.85;;;;;;;;;;6269751;22;20388;-60
2022/11/11 16:28:39;;;;;;;36.08;6.72;;;;;;;;;;6243030;22;20026;-59
2022/11/11 16:31:31;;;;;;;32.55;5.97;;;;;;;;;;6268239;22;20042;-59